LIRALRBS

Guest
Details From LIRA - Ciampino
To LRBS - Bucarest Baneasa
Flight Number -
Tags Generated
Created
Modified
Stats Distance 612 nm / 1,134 km
Max Altitude 0 ft / 0 m
Waypoints 4
Social Downloads 4
Likes 0
Share VATSIM

Download

Looking for another format? Having issues loading an existing format? Contact us
Advertisement - Login to hide

Notes

Generated

Route

LIRA GORAV BSW LRBS

ID Type Via Altitude Latitude Longitude Leg Dist Tot Dist Heading (true) Name
O LIRA APT - 0 ft / 0 m 41.80806˚ 12.58883˚ - 0 nm - -
GORAV FIX - 0 ft / 0 m 43.30806˚ 19.07778˚ 300 nm 300 nm 70° / 75° -
BSW NDB - 0 ft / 0 m 44.47209˚ 25.95200˚ 305 nm 606 nm 74° / 79° BANEASA SOUTHWEST NDB
O LRBS APT - 0 ft / 0 m 44.49922˚ 26.08276˚ 5 nm 612 nm 74° / 74° -

Altitude Profile

Advertisement - Login to hide

Weather


0- 5 10 15 20 25 30 35+ Temperature / ° C

Clouds and Precipitation
Forecast for 2017-12-14 18:00 UTC. Updated 31 minutes ago

Ground ~20,000 ft ~40,000 ft Winds

LIRA

Details ICAO LIRA (CIA)
Name CIAMPINO
Region Italy
Timezone Europe/Rome (UTC+1.0)
Stats Elevation 427 ft / 130 m (AMSL)
Location 41.799228° 12.594917°
Runways 1
Magnetic Variation 3.058° E

METAR

LIRA 141520Z 15012KT 9999 BKN020 BKN050 12/09 Q1014

Decode

TAF

TAF LIRA 141100Z 1412/1512 24014KT 9999 SCT025 BKN050 TEMPO 1412/1421 RA BECMG 1414/1416 24015G25KT TEMPO 1421/1512 4000 RA

Decode

Departure Runways

ID Width Length Bearing (true) Bearing (mag) Surface Threshold Offset Overrun Length
15 154 ft / 47 m 7,246 ft / 2,209 m 152.79° 149.73° Asphalt 0 ft / 0 m 0 ft / 0 m
33 154 ft / 47 m 7,246 ft / 2,209 m 332.80° 329.74° Asphalt 0 ft / 0 m 0 ft / 0 m

LRBS

Details ICAO LRBS (BBU)
Name Bucarest Baneasa
Region Romania
Timezone Europe/Bucharest (UTC+2.0)
Stats Elevation 297 ft / 91 m (AMSL)
Location 44.503193° 26.102113°
Runways 1
Magnetic Variation 5.595° E

METAR

LRBS 141530Z 26007KT CAVOK 10/06 Q1010 NOSIG

Decode

TAF

TAF LRBS 141100Z 1412/1512 25010KT CAVOK BECMG 1418/1420 5000 BR BKN015 TEMPO 1422/1506 3000 BR BKN010 BECMG 1507/1509 CAVOK

Decode

Destination Runways

ID Width Length Bearing (true) Bearing (mag) Surface Threshold Offset Overrun Length
07 148 ft / 45 m 10,480 ft / 3,194 m 73.93° 68.33° Concrete 787 ft / 240 m 0 ft / 0 m
25 148 ft / 45 m 10,480 ft / 3,194 m 253.96° 248.36° Concrete 2,609 ft / 795 m 0 ft / 0 m

Approach Navaids

Runway Type Ident Frequency Range Bearing (true) Bearing (mag) Slope Elevation
07 Localiser IBS 109.50 MHz 18 nm / 33 km 73.94° 68.34° - 297 ft / 91 m (AMSL)
07 Glidescope IBS 109.50 MHz 10 nm / 19 km 73.95° 68.35° 3.00° 297 ft / 91 m (AMSL)

Popular Alternatives